createdAt,value
2022-11-23T00:00:42.548Z,3.31
2022-11-23T00:01:32.611Z,3.30
2022-11-23T00:02:22.792Z,3.30
2022-11-23T00:03:12.531Z,3.30
2022-11-23T00:04:02.517Z,3.26
2022-11-23T00:04:52.506Z,3.26
2022-11-23T00:05:42.504Z,3.25
2022-11-23T00:06:32.514Z,3.22
2022-11-23T00:07:22.543Z,3.23
2022-11-23T00:08:12.518Z,3.23
2022-11-23T00:09:02.450Z,3.23
2022-11-23T00:09:52.454Z,3.23
2022-11-23T00:10:42.445Z,3.23
2022-11-23T00:11:32.416Z,3.22
2022-11-23T00:12:22.438Z,3.20
2022-11-23T00:13:12.414Z,3.17
2022-11-23T00:14:02.442Z,3.17
2022-11-23T00:14:52.405Z,3.16
2022-11-23T00:15:42.395Z,3.16
2022-11-23T00:16:32.375Z,3.13
2022-11-23T00:17:22.414Z,3.13
2022-11-23T00:18:12.366Z,3.15
2022-11-23T00:19:02.366Z,3.10
2022-11-23T00:19:52.323Z,3.07
2022-11-23T00:20:42.324Z,3.07
2022-11-23T00:21:32.314Z,3.04
2022-11-23T00:22:22.519Z,3.02
2022-11-23T00:23:12.363Z,3.01
2022-11-23T00:24:02.282Z,2.99
2022-11-23T00:24:52.389Z,2.99
2022-11-23T00:25:42.282Z,2.98
2022-11-23T00:26:32.272Z,2.98
2022-11-23T00:27:22.254Z,2.98
2022-11-23T00:28:12.242Z,2.97
2022-11-23T00:29:02.461Z,2.94
2022-11-23T00:29:52.251Z,2.95
2022-11-23T00:30:42.228Z,2.95
2022-11-23T00:31:32.204Z,2.94
2022-11-23T00:32:22.196Z,2.94
2022-11-23T00:33:12.210Z,2.94
2022-11-23T00:34:02.181Z,2.94
2022-11-23T00:34:52.250Z,2.92
2022-11-23T00:35:42.167Z,2.92
2022-11-23T00:36:32.166Z,2.90
2022-11-23T00:37:22.148Z,2.90
2022-11-23T00:38:12.152Z,2.89
2022-11-23T00:39:02.178Z,2.87
2022-11-23T00:39:52.114Z,2.86
2022-11-23T00:40:42.341Z,2.81
2022-11-23T00:41:32.099Z,2.74
2022-11-23T00:42:22.103Z,2.69
2022-11-23T00:43:12.069Z,2.68
2022-11-23T00:44:02.078Z,2.68
2022-11-23T00:44:52.048Z,2.69
2022-11-23T00:45:42.049Z,2.69
2022-11-23T00:46:32.078Z,2.66
2022-11-23T00:47:22.029Z,2.69
2022-11-23T00:48:12.029Z,2.69
2022-11-23T00:49:02.019Z,2.69
2022-11-23T00:49:52.004Z,2.66
2022-11-23T00:50:42.018Z,2.65
2022-11-23T00:51:32.021Z,2.65
2022-11-23T00:52:22.207Z,2.65
2022-11-23T00:53:11.978Z,2.68
2022-11-23T00:54:01.995Z,2.65
2022-11-23T00:54:51.940Z,2.65
2022-11-23T00:55:41.955Z,2.65
2022-11-23T00:56:31.944Z,2.65
2022-11-23T00:57:21.963Z,2.65
2022-11-23T00:58:12.012Z,2.65
2022-11-23T00:59:01.924Z,2.63
2022-11-23T00:59:51.896Z,2.63
2022-11-23T01:00:41.885Z,2.62
2022-11-23T01:01:31.928Z,2.61
2022-11-23T01:02:21.875Z,2.58
2022-11-23T01:03:11.845Z,2.58
2022-11-23T01:04:01.886Z,2.55
2022-11-23T01:04:51.843Z,2.56
2022-11-23T01:05:41.834Z,2.55
2022-11-23T01:06:31.814Z,2.51
2022-11-23T01:07:21.853Z,2.53
2022-11-23T01:08:11.824Z,2.53
2022-11-23T01:09:01.797Z,2.53
2022-11-23T01:09:52.033Z,2.51
2022-11-23T01:10:41.812Z,2.51
2022-11-23T01:11:31.772Z,2.51
2022-11-23T01:12:21.753Z,2.51
2022-11-23T01:13:11.763Z,2.53
2022-11-23T01:14:01.742Z,2.51
2022-11-23T01:14:51.713Z,2.48
2022-11-23T01:15:41.796Z,2.45
2022-11-23T01:16:31.702Z,2.47
2022-11-23T01:17:21.691Z,2.45
2022-11-23T01:18:11.689Z,2.47
2022-11-23T01:19:01.672Z,2.47
2022-11-23T01:19:51.688Z,2.45
2022-11-23T01:20:41.658Z,2.45
2022-11-23T01:21:31.670Z,2.45
2022-11-23T01:22:21.650Z,2.44
2022-11-23T01:23:11.670Z,2.43
2022-11-23T01:24:01.628Z,2.41
2022-11-23T01:24:51.639Z,2.41
2022-11-23T01:25:41.617Z,2.38
2022-11-23T01:26:31.593Z,2.37
2022-11-23T01:27:21.650Z,2.37
2022-11-23T01:28:11.583Z,2.36
2022-11-23T01:29:01.572Z,2.33
2022-11-23T01:29:51.569Z,2.30
2022-11-23T01:30:41.549Z,2.32
2022-11-23T01:31:31.530Z,2.30
2022-11-23T01:32:21.526Z,2.30
2022-11-23T01:33:11.579Z,2.30
2022-11-23T01:34:01.500Z,2.27
2022-11-23T01:34:51.497Z,2.27
2022-11-23T01:35:41.490Z,2.26
2022-11-23T01:36:31.491Z,2.22
2022-11-23T01:37:21.481Z,2.18
2022-11-23T01:38:15.232Z,2.18
2022-11-23T01:39:02.699Z,2.18
2022-11-23T01:39:51.457Z,2.19
2022-11-23T01:40:41.450Z,2.18
2022-11-23T01:41:31.448Z,2.18
2022-11-23T01:42:21.408Z,2.15
2022-11-23T01:43:11.420Z,2.15
2022-11-23T01:44:01.410Z,2.14
2022-11-23T01:44:51.448Z,2.14
2022-11-23T01:45:41.391Z,2.14
2022-11-23T01:46:31.402Z,2.14
2022-11-23T01:47:21.374Z,2.14
2022-11-23T01:48:11.355Z,2.14
2022-11-23T01:49:01.365Z,2.14
2022-11-23T01:49:51.338Z,2.12
2022-11-23T01:50:41.357Z,2.14
2022-11-23T01:51:31.326Z,2.12
2022-11-23T01:52:21.328Z,2.14
2022-11-23T01:53:11.299Z,2.09
2022-11-23T01:54:01.320Z,2.05
2022-11-23T01:54:51.295Z,2.07
2022-11-23T01:55:41.288Z,2.05
2022-11-23T01:56:31.288Z,2.05
2022-11-23T01:57:21.245Z,2.04
2022-11-23T01:58:11.264Z,2.05
2022-11-23T01:59:01.259Z,2.05
2022-11-23T01:59:51.223Z,2.04
2022-11-23T02:00:41.213Z,2.05
2022-11-23T02:01:31.385Z,2.04
2022-11-23T02:02:21.187Z,2.02
2022-11-23T02:03:11.202Z,2.01
2022-11-23T02:04:01.184Z,2.04
2022-11-23T02:04:51.181Z,2.02
2022-11-23T02:05:41.172Z,2.01
2022-11-23T02:06:31.169Z,2.00
2022-11-23T02:07:21.287Z,1.98
2022-11-23T02:08:11.151Z,2.00
2022-11-23T02:09:01.147Z,1.98
2022-11-23T02:09:51.123Z,1.95
2022-11-23T02:10:41.135Z,1.95
2022-11-23T02:11:31.115Z,1.93
2022-11-23T02:12:21.114Z,1.90
2022-11-23T02:13:11.093Z,1.88
2022-11-23T02:14:01.072Z,1.89
2022-11-23T02:14:51.293Z,1.86
2022-11-23T02:15:41.053Z,1.85
2022-11-23T02:16:31.041Z,1.83
2022-11-23T02:17:21.050Z,1.82
2022-11-23T02:18:11.024Z,1.81
2022-11-23T02:19:01.010Z,1.82
2022-11-23T02:19:51.004Z,1.81
2022-11-23T02:20:41.026Z,1.81
2022-11-23T02:21:30.989Z,1.82
2022-11-23T02:22:20.970Z,1.79
2022-11-23T02:23:10.996Z,1.81
2022-11-23T02:24:00.949Z,1.82
2022-11-23T02:24:50.963Z,1.82
2022-11-23T02:25:40.951Z,1.81
2022-11-23T02:26:30.959Z,1.82
2022-11-23T02:27:20.917Z,1.81
2022-11-23T02:28:10.910Z,1.82
2022-11-23T02:29:00.908Z,1.81
2022-11-23T02:29:50.922Z,1.81
2022-11-23T02:30:40.903Z,1.82
2022-11-23T02:31:30.887Z,1.82
2022-11-23T02:32:20.872Z,1.82
2022-11-23T02:33:10.869Z,1.82
2022-11-23T02:34:00.848Z,1.81
2022-11-23T02:34:50.876Z,1.81
2022-11-23T02:35:40.831Z,1.81
2022-11-23T02:36:30.817Z,1.79
2022-11-23T02:37:20.842Z,1.79
2022-11-23T02:38:10.806Z,1.79
2022-11-23T02:39:00.797Z,1.77
2022-11-23T02:39:50.776Z,1.79
2022-11-23T02:40:40.827Z,1.77
2022-11-23T02:41:30.776Z,1.79
2022-11-23T02:42:20.745Z,1.79
2022-11-23T02:43:10.762Z,1.79
2022-11-23T02:44:00.757Z,1.77
2022-11-23T02:44:50.739Z,1.79
2022-11-23T02:45:40.718Z,1.75
2022-11-23T02:46:30.749Z,1.79
2022-11-23T02:47:20.776Z,1.75
2022-11-23T02:48:10.703Z,1.75
2022-11-23T02:49:00.719Z,1.72
2022-11-23T02:49:50.712Z,1.71
2022-11-23T02:50:40.696Z,1.70
2022-11-23T02:51:30.653Z,1.70
2022-11-23T02:52:20.647Z,1.68
2022-11-23T02:53:10.648Z,1.70
2022-11-23T02:54:00.658Z,1.68
2022-11-23T02:54:50.649Z,1.71
2022-11-23T02:55:40.624Z,1.71
2022-11-23T02:56:30.824Z,1.71
2022-11-23T02:57:20.586Z,1.71
2022-11-23T02:58:10.592Z,1.71
2022-11-23T02:59:00.573Z,1.70
2022-11-23T02:59:50.594Z,1.70
2022-11-23T03:00:40.610Z,1.71
2022-11-23T03:01:30.571Z,1.70
2022-11-23T03:02:20.560Z,1.68
2022-11-23T03:03:10.526Z,1.68
2022-11-23T03:04:00.521Z,1.65
2022-11-23T03:04:50.538Z,1.65
2022-11-23T03:05:40.500Z,1.64
2022-11-23T03:06:30.500Z,1.63
2022-11-23T03:07:20.541Z,1.60
2022-11-23T03:08:10.689Z,1.57
2022-11-23T03:09:00.450Z,1.53
2022-11-23T03:09:50.448Z,1.52
2022-11-23T03:10:40.457Z,1.50
2022-11-23T03:11:30.452Z,1.52
2022-11-23T03:12:20.419Z,1.52
2022-11-23T03:13:10.533Z,1.54
2022-11-23T03:14:00.432Z,1.54
2022-11-23T03:14:50.389Z,1.57
2022-11-23T03:15:40.388Z,1.57
2022-11-23T03:16:30.389Z,1.57
2022-11-23T03:17:20.360Z,1.60
2022-11-23T03:18:10.369Z,1.57
2022-11-23T03:19:00.360Z,1.60
2022-11-23T03:19:50.369Z,1.61
2022-11-23T03:20:40.359Z,1.60
2022-11-23T03:21:30.342Z,1.60
2022-11-23T03:22:20.298Z,1.60
2022-11-23T03:23:10.299Z,1.60
2022-11-23T03:24:00.298Z,1.60
2022-11-23T03:24:50.278Z,1.57
2022-11-23T03:25:40.296Z,1.60
2022-11-23T03:26:30.269Z,1.57
2022-11-23T03:27:20.261Z,1.57
2022-11-23T03:28:10.268Z,1.56
2022-11-23T03:29:00.242Z,1.56
2022-11-23T03:29:50.249Z,1.56
2022-11-23T03:30:40.236Z,1.56
2022-11-23T03:31:30.226Z,1.54
2022-11-23T03:32:20.204Z,1.53
2022-11-23T03:33:10.226Z,1.50
2022-11-23T03:34:00.209Z,1.46
2022-11-23T03:34:50.198Z,1.43
2022-11-23T03:35:40.169Z,1.42
2022-11-23T03:36:30.178Z,1.39
2022-11-23T03:37:20.175Z,1.39
2022-11-23T03:38:10.147Z,1.42
2022-11-23T03:39:00.139Z,1.43
2022-11-23T03:39:50.116Z,1.46
2022-11-23T03:40:40.105Z,1.50
2022-11-23T03:41:30.114Z,1.52
2022-11-23T03:42:20.093Z,1.52
2022-11-23T03:43:10.163Z,1.53
2022-11-23T03:44:00.080Z,1.54
2022-11-23T03:44:50.085Z,1.57
2022-11-23T03:45:40.060Z,1.57
2022-11-23T03:46:30.050Z,1.60
2022-11-23T03:47:20.052Z,1.63
2022-11-23T03:48:10.037Z,1.67
2022-11-23T03:49:00.046Z,1.65
2022-11-23T03:49:50.051Z,1.67
2022-11-23T03:50:40.022Z,1.67
2022-11-23T03:51:30.001Z,1.67
2022-11-23T03:52:19.973Z,1.67
2022-11-23T03:53:09.990Z,1.65
2022-11-23T03:53:59.973Z,1.67
2022-11-23T03:54:50.001Z,1.68
2022-11-23T03:55:39.959Z,1.71
2022-11-23T03:56:29.947Z,1.68
2022-11-23T03:57:19.919Z,1.68
2022-11-23T03:58:09.939Z,1.65
2022-11-23T03:59:00.111Z,1.65
2022-11-23T03:59:49.913Z,1.63
2022-11-23T04:00:39.936Z,1.63
2022-11-23T04:01:29.944Z,1.63
2022-11-23T04:02:19.881Z,1.67
2022-11-23T04:03:09.878Z,1.65
2022-11-23T04:03:59.855Z,1.65
2022-11-23T04:04:49.908Z,1.64
2022-11-23T04:05:39.839Z,1.63
2022-11-23T04:06:29.819Z,1.64
2022-11-23T04:07:19.938Z,1.65
2022-11-23T04:08:09.811Z,1.64
2022-11-23T04:09:02.357Z,1.64
2022-11-23T04:09:49.795Z,1.64
2022-11-23T04:10:39.807Z,1.64
2022-11-23T04:11:29.769Z,1.63
2022-11-23T04:12:19.757Z,1.60
2022-11-23T04:13:09.757Z,1.56
2022-11-23T04:13:59.748Z,1.50
2022-11-23T04:14:49.746Z,1.49
2022-11-23T04:15:39.726Z,1.47
2022-11-23T04:16:29.748Z,1.47
2022-11-23T04:17:19.698Z,1.47
2022-11-23T04:18:09.706Z,1.49
2022-11-23T04:18:59.679Z,1.47
2022-11-23T04:19:49.679Z,1.49
2022-11-23T04:20:39.676Z,1.47
2022-11-23T04:21:29.653Z,1.44
2022-11-23T04:22:19.721Z,1.43
2022-11-23T04:23:13.287Z,1.42
2022-11-23T04:23:59.642Z,1.39
2022-11-23T04:24:49.634Z,1.38
2022-11-23T04:25:39.626Z,1.39
2022-11-23T04:26:29.611Z,1.43
2022-11-23T04:27:19.584Z,1.46
2022-11-23T04:28:09.625Z,1.44
2022-11-23T04:28:59.584Z,1.46
2022-11-23T04:29:49.575Z,1.43
2022-11-23T04:30:39.565Z,1.42
2022-11-23T04:31:29.544Z,1.39
2022-11-23T04:32:19.523Z,1.39
2022-11-23T04:33:09.542Z,1.38
2022-11-23T04:33:59.550Z,1.35
2022-11-23T04:34:49.506Z,1.35
2022-11-23T04:35:39.495Z,1.34
2022-11-23T04:36:29.502Z,1.31
2022-11-23T04:37:19.511Z,1.31
2022-11-23T04:38:09.491Z,1.31
2022-11-23T04:38:59.453Z,1.29
2022-11-23T04:39:49.492Z,1.29
2022-11-23T04:40:39.473Z,1.28
2022-11-23T04:41:29.450Z,1.28
2022-11-23T04:42:19.442Z,1.29
2022-11-23T04:43:09.411Z,1.28
2022-11-23T04:43:59.416Z,1.28
2022-11-23T04:44:49.409Z,1.28
2022-11-23T04:45:39.633Z,1.29
2022-11-23T04:46:29.382Z,1.29
2022-11-23T04:47:19.370Z,1.31
2022-11-23T04:48:09.369Z,1.34
2022-11-23T04:48:59.349Z,1.34
2022-11-23T04:49:49.358Z,1.32
2022-11-23T04:50:40.737Z,1.28
2022-11-23T04:51:29.539Z,1.28
2022-11-23T04:52:19.317Z,1.25
2022-11-23T04:53:09.298Z,1.21
2022-11-23T04:53:59.289Z,1.18
2022-11-23T04:54:49.284Z,1.18
2022-11-23T04:55:39.306Z,1.20
2022-11-23T04:56:29.282Z,1.21
2022-11-23T04:57:19.321Z,1.17
2022-11-23T04:58:09.257Z,1.16
2022-11-23T04:58:59.259Z,1.18
2022-11-23T04:59:49.243Z,1.17
2022-11-23T05:00:39.226Z,1.20
2022-11-23T05:01:29.264Z,1.20
2022-11-23T05:02:19.227Z,1.20
2022-11-23T05:03:09.205Z,1.24
2022-11-23T05:03:59.428Z,1.25
2022-11-23T05:04:49.189Z,1.28
2022-11-23T05:05:39.176Z,1.28
2022-11-23T05:06:29.145Z,1.29
2022-11-23T05:07:19.165Z,1.29
2022-11-23T05:08:09.179Z,1.29
2022-11-23T05:08:59.133Z,1.29
2022-11-23T05:09:49.145Z,1.26
2022-11-23T05:10:39.131Z,1.21
2022-11-23T05:11:29.084Z,1.18
2022-11-23T05:12:19.096Z,1.20
2022-11-23T05:13:09.096Z,1.17
2022-11-23T05:13:59.116Z,1.14
2022-11-23T05:14:49.089Z,1.14
2022-11-23T05:15:39.071Z,1.13
2022-11-23T05:16:29.043Z,1.11
2022-11-23T05:17:19.039Z,1.13
2022-11-23T05:18:09.012Z,1.16
2022-11-23T05:18:59.023Z,1.16
2022-11-23T05:19:49.060Z,1.14
2022-11-23T05:20:39.010Z,1.16
2022-11-23T05:21:29.000Z,1.16
2022-11-23T05:22:18.986Z,1.17
2022-11-23T05:23:08.983Z,1.17
2022-11-23T05:23:58.968Z,1.18
2022-11-23T05:24:48.971Z,1.18
2022-11-23T05:25:38.951Z,1.20
2022-11-23T05:26:28.922Z,1.21
2022-11-23T05:27:18.939Z,1.21
2022-11-23T05:28:37.972Z,1.21
2022-11-23T05:28:59.901Z,1.21
2022-11-23T05:29:48.892Z,1.21
2022-11-23T05:30:38.919Z,1.24
2022-11-23T05:31:28.895Z,1.24
2022-11-23T05:32:18.880Z,1.21
2022-11-23T05:33:08.859Z,1.17
2022-11-23T05:33:58.869Z,1.14
2022-11-23T05:34:48.844Z,1.13
2022-11-23T05:35:38.869Z,1.13
2022-11-23T05:36:28.851Z,1.14
2022-11-23T05:37:18.839Z,1.16
2022-11-23T05:38:08.805Z,1.14
2022-11-23T05:38:58.792Z,1.18
2022-11-23T05:39:48.787Z,1.16
2022-11-23T05:40:38.808Z,1.16
2022-11-23T05:41:28.778Z,1.14
2022-11-23T05:42:18.795Z,1.11
2022-11-23T05:43:08.761Z,1.10
2022-11-23T05:43:58.757Z,1.08
2022-11-23T05:44:48.726Z,1.08
2022-11-23T05:45:38.720Z,1.06
2022-11-23T05:46:28.736Z,1.00
2022-11-23T05:47:18.711Z,1.00
2022-11-23T05:48:08.737Z,0.96
2022-11-23T05:48:58.700Z,0.96
2022-11-23T05:49:48.700Z,0.96
2022-11-23T05:50:38.672Z,0.95
2022-11-23T05:51:28.672Z,0.95
2022-11-23T05:52:18.662Z,0.93
2022-11-23T05:53:08.652Z,0.93
2022-11-23T05:53:58.675Z,0.96
2022-11-23T05:54:48.635Z,0.96
2022-11-23T05:55:38.616Z,0.96
2022-11-23T05:56:28.614Z,0.96
2022-11-23T05:57:18.608Z,0.96
2022-11-23T05:58:08.589Z,0.98
2022-11-23T05:58:58.573Z,0.99
2022-11-23T05:59:48.634Z,1.02
2022-11-23T06:00:38.572Z,1.04
2022-11-23T06:01:28.545Z,1.06
2022-11-23T06:02:18.566Z,1.07
2022-11-23T06:03:08.523Z,1.07
2022-11-23T06:03:58.553Z,1.10
2022-11-23T06:04:48.522Z,1.11
2022-11-23T06:05:38.535Z,1.11
2022-11-23T06:06:28.520Z,1.14
2022-11-23T06:07:18.568Z,1.14
2022-11-23T06:08:08.474Z,1.16
2022-11-23T06:08:58.484Z,1.17
2022-11-23T06:09:48.495Z,1.17
2022-11-23T06:10:38.447Z,1.17
2022-11-23T06:11:28.651Z,1.17
2022-11-23T06:12:18.435Z,1.18
2022-11-23T06:13:08.411Z,1.18
2022-11-23T06:13:58.421Z,1.17
2022-11-23T06:14:48.408Z,1.17
2022-11-23T06:15:38.419Z,1.20
2022-11-23T06:16:28.379Z,1.20
2022-11-23T06:17:18.420Z,1.20
2022-11-23T06:18:08.350Z,1.20
2022-11-23T06:18:58.350Z,1.21
2022-11-23T06:19:48.383Z,1.21
2022-11-23T06:20:38.340Z,1.24
2022-11-23T06:21:28.318Z,1.21
2022-11-23T06:22:18.309Z,1.21
2022-11-23T06:23:08.548Z,1.21
2022-11-23T06:23:58.310Z,1.20
2022-11-23T06:24:48.279Z,1.21
2022-11-23T06:25:38.287Z,1.20
2022-11-23T06:26:28.257Z,1.18
2022-11-23T06:27:18.620Z,1.16
2022-11-23T06:28:08.279Z,1.13
2022-11-23T06:28:58.294Z,1.08
2022-11-23T06:29:48.247Z,1.10
2022-11-23T06:30:38.267Z,1.08
2022-11-23T06:31:28.206Z,1.10
2022-11-23T06:32:18.217Z,1.10
2022-11-23T06:33:08.219Z,1.08
2022-11-23T06:33:58.194Z,1.08
2022-11-23T06:34:48.220Z,1.10
2022-11-23T06:35:38.166Z,1.11
2022-11-23T06:36:28.164Z,1.11
2022-11-23T06:37:18.165Z,1.14
2022-11-23T06:38:08.139Z,1.16
2022-11-23T06:38:58.138Z,1.17
2022-11-23T06:39:48.133Z,1.17
2022-11-23T06:40:38.143Z,1.18
2022-11-23T06:41:32.246Z,1.20
2022-11-23T06:42:37.673Z,1.21
2022-11-23T06:43:09.085Z,1.21
2022-11-23T06:43:58.084Z,1.21
2022-11-23T06:44:48.128Z,1.24
2022-11-23T06:45:38.079Z,1.24
2022-11-23T06:46:28.053Z,1.21
2022-11-23T06:47:21.940Z,1.18
2022-11-23T06:48:09.022Z,1.16
2022-11-23T06:48:58.024Z,1.11
2022-11-23T06:49:48.025Z,1.10
2022-11-23T06:50:38.084Z,1.06
2022-11-23T06:51:28.005Z,1.00
2022-11-23T06:52:17.985Z,0.99
2022-11-23T06:53:07.992Z,0.98
2022-11-23T06:53:57.974Z,0.96
2022-11-23T06:54:47.968Z,0.92
2022-11-23T06:55:37.981Z,0.92
2022-11-23T06:56:28.169Z,0.92
2022-11-23T06:57:17.942Z,0.93
2022-11-23T06:58:07.931Z,0.92
2022-11-23T06:58:57.932Z,0.93
2022-11-23T06:59:47.897Z,0.93
2022-11-23T07:00:37.921Z,0.95
2022-11-23T07:01:27.943Z,0.95
2022-11-23T07:02:17.900Z,0.95
2022-11-23T07:03:07.955Z,0.95
2022-11-23T07:03:57.951Z,0.98
2022-11-23T07:04:47.848Z,0.96
2022-11-23T07:05:37.856Z,0.96
2022-11-23T07:06:27.817Z,0.98
2022-11-23T07:07:17.867Z,1.00
2022-11-23T07:08:08.031Z,1.02
2022-11-23T07:08:57.819Z,0.99
2022-11-23T07:09:47.789Z,0.98
2022-11-23T07:10:38.008Z,0.96
2022-11-23T07:11:27.789Z,0.95
2022-11-23T07:12:17.766Z,0.95
2022-11-23T07:13:07.758Z,0.95
2022-11-23T07:13:57.778Z,0.98
2022-11-23T07:14:47.728Z,0.98
2022-11-23T07:15:37.737Z,0.99
2022-11-23T07:16:27.803Z,1.04
2022-11-23T07:17:17.806Z,1.04
2022-11-23T07:18:07.706Z,1.07
2022-11-23T07:18:57.685Z,1.08
2022-11-23T07:19:47.686Z,1.10
2022-11-23T07:20:37.665Z,1.08
2022-11-23T07:21:27.674Z,1.06
2022-11-23T07:22:17.876Z,1.06
2022-11-23T07:23:07.637Z,1.06
2022-11-23T07:23:57.655Z,1.07
2022-11-23T07:24:47.615Z,1.08
2022-11-23T07:25:37.615Z,1.10
2022-11-23T07:26:27.866Z,1.11
2022-11-23T07:27:17.594Z,1.08
2022-11-23T07:28:08.830Z,1.10
2022-11-23T07:28:57.591Z,1.07
2022-11-23T07:29:47.562Z,1.06
2022-11-23T07:30:37.593Z,1.02
2022-11-23T07:31:27.563Z,0.98
2022-11-23T07:32:17.600Z,0.98
2022-11-23T07:33:07.558Z,0.99
2022-11-23T07:33:57.767Z,0.98
2022-11-23T07:34:47.512Z,0.99
2022-11-23T07:35:37.519Z,0.99
2022-11-23T07:36:27.515Z,1.00
2022-11-23T07:37:17.503Z,0.96
2022-11-23T07:38:07.480Z,0.90
2022-11-23T07:38:57.472Z,0.90
2022-11-23T07:40:03.361Z,0.89
2022-11-23T07:40:38.537Z,0.90
2022-11-23T07:41:27.455Z,0.93
2022-11-23T07:42:32.726Z,0.95
2022-11-23T07:43:08.413Z,0.93
2022-11-23T07:43:57.435Z,0.95
2022-11-23T07:44:47.407Z,0.93
2022-11-23T07:45:37.670Z,0.95
2022-11-23T07:46:27.378Z,0.95
2022-11-23T07:47:17.610Z,0.96
2022-11-23T07:48:07.369Z,1.00
2022-11-23T07:48:57.351Z,1.02
2022-11-23T07:49:47.360Z,1.02
2022-11-23T07:50:37.367Z,1.06
2022-11-23T07:53:10.854Z,1.06
2022-11-23T07:53:15.507Z,1.13
2022-11-23T07:54:05.528Z,1.17
2022-11-23T07:54:55.488Z,1.21
2022-11-23T07:55:45.480Z,1.26
2022-11-23T07:56:35.491Z,1.32
2022-11-23T07:57:25.457Z,1.32
2022-11-23T07:58:15.538Z,1.34
2022-11-23T07:59:05.447Z,1.35
2022-11-23T07:59:55.438Z,1.38
2022-11-23T08:00:45.449Z,1.38
2022-11-23T08:01:35.415Z,1.43
2022-11-23T08:02:25.456Z,1.43
2022-11-23T08:03:31.147Z,1.46
2022-11-23T08:04:06.672Z,1.49
2022-11-23T08:04:55.465Z,1.46
2022-11-23T08:05:45.510Z,1.46
2022-11-23T08:06:35.368Z,1.46
2022-11-23T08:07:25.418Z,1.47
2022-11-23T08:08:15.346Z,1.47
2022-11-23T08:09:06.059Z,1.49
2022-11-23T08:09:55.336Z,1.49
2022-11-23T08:10:51.440Z,1.50
2022-11-23T08:11:36.325Z,1.50
2022-11-23T08:12:25.345Z,1.52
2022-11-23T08:13:15.328Z,1.52
2022-11-23T08:14:05.269Z,1.50
2022-11-23T08:14:55.315Z,1.52
2022-11-23T08:15:50.188Z,1.53
2022-11-23T08:16:36.327Z,1.53
2022-11-23T08:17:25.247Z,1.56
2022-11-23T08:18:15.231Z,1.60
2022-11-23T08:19:05.234Z,1.54
2022-11-23T08:19:55.214Z,1.53
2022-11-23T08:20:45.263Z,1.50
2022-11-23T08:21:35.214Z,1.47
2022-11-23T08:22:25.194Z,1.49
2022-11-23T08:23:15.180Z,1.49
2022-11-23T08:24:05.175Z,1.50
2022-11-23T08:24:55.204Z,1.47
2022-11-23T08:25:45.156Z,1.50
2022-11-23T08:26:35.225Z,1.54
2022-11-23T08:27:25.146Z,1.56
2022-11-23T08:28:15.119Z,1.56
2022-11-23T08:29:05.111Z,1.54
2022-11-23T08:29:55.125Z,1.53
2022-11-23T08:30:45.110Z,1.54
2022-11-23T08:31:35.083Z,1.56
2022-11-23T08:32:25.158Z,1.63
2022-11-23T08:33:15.092Z,1.63
2022-11-23T08:34:05.051Z,1.56
2022-11-23T08:34:55.042Z,1.56
2022-11-23T08:35:45.044Z,1.56
2022-11-23T08:36:35.111Z,1.56
2022-11-23T08:37:25.012Z,1.54
2022-11-23T08:38:15.033Z,1.57
2022-11-23T08:39:05.007Z,1.56
2022-11-23T08:39:54.991Z,1.57
2022-11-23T08:40:45.002Z,1.52
2022-11-23T08:41:34.973Z,1.49
2022-11-23T08:42:24.976Z,1.44
2022-11-23T08:43:14.970Z,1.46
2022-11-23T08:44:05.900Z,1.47
2022-11-23T08:44:54.946Z,1.50
2022-11-23T08:45:44.938Z,1.49
2022-11-23T08:46:34.972Z,1.49
2022-11-23T08:47:24.916Z,1.47
2022-11-23T08:48:14.891Z,1.49
2022-11-23T08:49:04.919Z,1.49
2022-11-23T08:49:54.910Z,1.49
2022-11-23T08:50:44.876Z,1.50
2022-11-23T08:51:35.107Z,1.47
2022-11-23T08:52:24.865Z,1.47
2022-11-23T08:53:14.880Z,1.46
2022-11-23T08:54:04.837Z,1.47
2022-11-23T08:54:54.845Z,1.49
2022-11-23T08:55:44.826Z,1.49
2022-11-23T08:56:34.857Z,1.47
2022-11-23T08:57:24.854Z,1.46
2022-11-23T08:58:14.798Z,1.44
2022-11-23T08:59:04.796Z,1.44
2022-11-23T08:59:54.804Z,1.42
2022-11-23T09:00:44.796Z,1.38
2022-11-23T09:01:34.826Z,1.36
2022-11-23T09:02:24.750Z,1.38
2022-11-23T09:03:14.822Z,1.34
2022-11-23T09:04:04.757Z,1.36
2022-11-23T09:04:54.732Z,1.36
2022-11-23T09:05:44.750Z,1.36
2022-11-23T09:06:34.702Z,1.34
2022-11-23T09:07:24.759Z,1.36
2022-11-23T09:08:14.675Z,1.38
2022-11-23T09:09:05.984Z,1.44
2022-11-23T09:09:54.675Z,1.46
2022-11-23T09:10:44.674Z,1.49
2022-11-23T09:11:34.634Z,1.50
2022-11-23T09:12:24.644Z,1.50
2022-11-23T09:13:14.643Z,1.53
2022-11-23T09:14:04.633Z,1.53
2022-11-23T09:14:54.840Z,1.52
2022-11-23T09:15:44.608Z,1.47
2022-11-23T09:16:34.592Z,1.50
2022-11-23T09:17:24.600Z,1.47
2022-11-23T09:18:14.599Z,1.49
2022-11-23T09:19:04.573Z,1.47
2022-11-23T09:19:54.571Z,1.49
2022-11-23T09:20:44.580Z,1.49
2022-11-23T09:21:34.538Z,1.50
2022-11-23T09:22:24.530Z,1.52
2022-11-23T09:23:14.696Z,1.53
2022-11-23T09:24:04.506Z,1.50
2022-11-23T09:24:54.505Z,1.52
2022-11-23T09:25:44.501Z,1.53
2022-11-23T09:26:34.528Z,1.53
2022-11-23T09:27:24.506Z,1.53
2022-11-23T09:28:14.448Z,1.52
2022-11-23T09:29:04.448Z,1.50
2022-11-23T09:29:54.437Z,1.54
2022-11-23T09:30:44.449Z,1.60
2022-11-23T09:31:34.419Z,1.60
2022-11-23T09:32:24.477Z,1.64
2022-11-23T09:33:14.410Z,1.65
2022-11-23T09:34:04.398Z,1.68
2022-11-23T09:34:54.420Z,1.71
2022-11-23T09:35:44.465Z,1.72
2022-11-23T09:36:34.377Z,1.77
2022-11-23T09:37:24.369Z,1.81
2022-11-23T09:38:15.169Z,1.83
2022-11-23T09:39:04.372Z,1.85
2022-11-23T09:39:54.326Z,1.86
2022-11-23T09:40:44.334Z,1.89
2022-11-23T09:41:34.326Z,1.92
2022-11-23T09:42:24.309Z,1.93
2022-11-23T09:43:14.288Z,2.00
2022-11-23T09:44:09.675Z,2.04
2022-11-23T09:44:54.276Z,2.08
2022-11-23T09:45:44.273Z,2.11
2022-11-23T09:46:37.024Z,2.18
2022-11-23T09:47:24.259Z,2.20
2022-11-23T09:48:14.262Z,2.23
2022-11-23T09:49:04.262Z,2.25
2022-11-23T09:52:12.261Z,2.37
2022-11-23T09:52:59.199Z,2.40
2022-11-23T09:53:49.187Z,2.45
2022-11-23T09:54:39.192Z,2.47
2022-11-23T09:55:29.162Z,2.51
2022-11-23T09:56:19.171Z,2.55
2022-11-23T09:57:09.165Z,2.58
2022-11-23T09:57:59.188Z,2.61
2022-11-23T09:58:49.160Z,2.65
2022-11-23T09:59:39.138Z,2.68
2022-11-23T10:00:29.133Z,2.73
2022-11-23T10:01:19.180Z,2.76
2022-11-23T10:02:09.170Z,2.79
2022-11-23T10:02:59.104Z,2.80
2022-11-23T10:03:49.582Z,2.84
2022-11-23T10:04:39.112Z,2.87
2022-11-23T10:05:29.083Z,2.90
2022-11-23T10:06:19.070Z,2.94
2022-11-23T10:07:09.093Z,2.95
2022-11-23T10:07:59.043Z,2.98
2022-11-23T10:08:49.028Z,3.02
2022-11-23T10:09:39.259Z,3.07
2022-11-23T10:10:29.009Z,3.12
2022-11-23T10:11:19.004Z,3.17
2022-11-23T10:12:08.999Z,3.20
2022-11-23T10:12:58.987Z,3.23
2022-11-23T10:13:48.980Z,3.28
2022-11-23T10:14:38.980Z,3.28
2022-11-23T10:15:29.188Z,3.35
2022-11-23T10:16:18.958Z,3.42
2022-11-23T10:17:08.946Z,3.46
2022-11-23T10:17:58.948Z,3.53
2022-11-23T10:18:48.918Z,3.54
2022-11-23T10:19:38.938Z,3.57
2022-11-23T10:20:28.929Z,3.60
2022-11-23T10:21:18.946Z,3.62
2022-11-23T10:22:08.883Z,3.64
2022-11-23T10:22:58.875Z,3.67
2022-11-23T10:23:48.887Z,3.71
2022-11-23T10:24:38.866Z,3.77
2022-11-23T10:25:28.855Z,3.84
2022-11-23T10:26:18.845Z,3.90
2022-11-23T10:27:08.857Z,3.95
2022-11-23T10:27:58.808Z,4.00
2022-11-23T10:28:48.833Z,4.06
2022-11-23T10:29:38.806Z,4.17
2022-11-23T10:30:28.784Z,4.21
2022-11-23T10:31:18.794Z,4.32
2022-11-23T10:32:08.772Z,4.38
2022-11-23T10:32:58.805Z,4.43
2022-11-23T10:33:48.764Z,4.51
2022-11-23T10:34:38.754Z,4.61
2022-11-23T10:35:28.733Z,4.71
2022-11-23T10:36:18.737Z,4.75
2022-11-23T10:37:08.703Z,4.80
2022-11-23T10:37:58.722Z,4.84
2022-11-23T10:38:48.732Z,4.88
2022-11-23T10:39:38.703Z,4.91
2022-11-23T10:40:28.678Z,5.01
2022-11-23T10:41:18.663Z,5.08
2022-11-23T10:42:08.652Z,5.12
2022-11-23T10:42:58.659Z,5.20
2022-11-23T10:43:48.648Z,5.26
2022-11-23T10:44:38.685Z,5.30
2022-11-23T10:45:28.620Z,5.37
2022-11-23T10:46:18.604Z,5.40
2022-11-23T10:47:08.594Z,5.42
2022-11-23T10:47:58.591Z,5.48
2022-11-23T10:48:48.585Z,5.51
2022-11-23T10:49:38.596Z,5.52
2022-11-23T10:50:28.612Z,5.58
2022-11-23T10:51:18.573Z,5.63
2022-11-23T10:52:08.540Z,5.66
2022-11-23T10:52:58.548Z,5.67
2022-11-23T10:53:48.529Z,5.73
2022-11-23T10:54:38.530Z,5.75
2022-11-23T10:55:28.523Z,5.78
2022-11-23T10:56:18.552Z,5.83
2022-11-23T10:57:08.560Z,5.80
2022-11-23T10:57:58.488Z,5.83
2022-11-23T10:58:48.488Z,5.83
2022-11-23T10:59:38.489Z,5.85
2022-11-23T11:00:30.926Z,5.87
2022-11-23T11:01:18.545Z,5.92
2022-11-23T11:02:08.683Z,5.92
2022-11-23T11:02:58.420Z,5.92
2022-11-23T11:03:48.449Z,5.93
2022-11-23T11:04:38.408Z,5.96
2022-11-23T11:05:53.558Z,5.96
2022-11-23T11:06:19.400Z,5.98
2022-11-23T11:07:08.391Z,6.02
2022-11-23T11:07:58.446Z,6.03
2022-11-23T11:08:48.369Z,6.03